PIA757 OPLA-EGLL
Flight info
| Callsign | PIA757 |
|---|---|
| Flight time | N/A |
| Altitude | 36000 |
| Route | AKBER1D AKBER T400 INDEK L509 NONIB J165 HANGU G796 LAJAK L509 TAPIS M875 AMDAR T186 LAPZE Z407 ODIVA M161 LEDGI M166 ARISA L736 ASKIL L979 GRD L32 SOTET DCT BINKA L23 BERIM DCT STADE L23 WSN N125 BLUFA DCT ABNED L980 LOGAN LOGAN2H |
| Aircraft | B77W/H-SDE1E2E3FGHIJ2J3J4J5M1RWXY/LB1D1 |
Departure
| Time | 2026-05-07 08:12 |
|---|---|
| Airport | Allama Iqbal International Airport (OPLA) |
Arrival
| Time | N/A |
|---|---|
| Airport | London Heathrow Airport (EGLL) |
| Time | Latitude | Longitude | Altitude | Speed | Heading |
|---|---|---|---|---|---|
| 2026-05-07 07:45 | 31.52170 | 74.40927 | 727 ft | 0 kts | 90° |
| 2026-05-07 08:02 | 31.52170 | 74.40923 | 727 ft | 3 kts | 89° |
| 2026-05-07 08:02 | 31.52168 | 74.40893 | 726 ft | 4 kts | 76° |
| 2026-05-07 08:03 | 31.52158 | 74.40865 | 726 ft | 4 kts | 53° |
| 2026-05-07 08:03 | 31.52140 | 74.40846 | 726 ft | 4 kts | 8° |
| 2026-05-07 08:03 | 31.52134 | 74.40845 | 725 ft | 0 kts | 0° |
| 2026-05-07 08:05 | 31.52150 | 74.40845 | 726 ft | 4 kts | 0° |
| 2026-05-07 08:05 | 31.52188 | 74.40845 | 727 ft | 7 kts | 0° |
| 2026-05-07 08:05 | 31.52245 | 74.40846 | 728 ft | 9 kts | 0° |
| 2026-05-07 08:05 | 31.52320 | 74.40847 | 729 ft | 12 kts | 1° |
| 2026-05-07 08:06 | 31.52399 | 74.40821 | 728 ft | 13 kts | 311° |
| 2026-05-07 08:06 | 31.52400 | 74.40713 | 727 ft | 14 kts | 253° |
| 2026-05-07 08:06 | 31.52368 | 74.40681 | 728 ft | 6 kts | 208° |
| 2026-05-07 08:06 | 31.52319 | 74.40671 | 729 ft | 8 kts | 186° |
| 2026-05-07 08:07 | 31.52255 | 74.40664 | 728 ft | 10 kts | 183° |
| 2026-05-07 08:07 | 31.52186 | 74.40666 | 728 ft | 4 kts | 179° |
| 2026-05-07 08:07 | 31.52147 | 74.40666 | 729 ft | 7 kts | 180° |
| 2026-05-07 08:07 | 31.52096 | 74.40666 | 728 ft | 8 kts | 180° |
| 2026-05-07 08:08 | 31.52031 | 74.40665 | 728 ft | 10 kts | 180° |
| 2026-05-07 08:08 | 31.51954 | 74.40664 | 728 ft | 12 kts | 181° |
| 2026-05-07 08:08 | 31.51865 | 74.40662 | 729 ft | 14 kts | 180° |
| 2026-05-07 08:08 | 31.51762 | 74.40662 | 729 ft | 16 kts | 179° |
| 2026-05-07 08:09 | 31.51644 | 74.40663 | 729 ft | 18 kts | 182° |
| 2026-05-07 08:09 | 31.51519 | 74.40656 | 728 ft | 19 kts | 182° |
| 2026-05-07 08:09 | 31.51386 | 74.40654 | 728 ft | 20 kts | 179° |
| 2026-05-07 08:09 | 31.51245 | 74.40651 | 728 ft | 21 kts | 181° |
| 2026-05-07 08:10 | 31.51100 | 74.40650 | 729 ft | 21 kts | 181° |
| 2026-05-07 08:10 | 31.50951 | 74.40647 | 729 ft | 21 kts | 181° |
| 2026-05-07 08:10 | 31.50807 | 74.40638 | 727 ft | 21 kts | 191° |
| 2026-05-07 08:10 | 31.50690 | 74.40539 | 731 ft | 21 kts | 232° |
| 2026-05-07 08:11 | 31.50684 | 74.40423 | 728 ft | 9 kts | 327° |
| 2026-05-07 08:11 | 31.50788 | 74.40430 | 729 ft | 41 kts | 4° |
| 2026-05-07 08:11 | 31.51421 | 74.40446 | 729 ft | 140 kts | 1° |
| 2026-05-07 08:11 | 31.52692 | 74.40478 | 803 ft | 220 kts | 1° |
| 2026-05-07 08:12 | 31.54227 | 74.40495 | 1827 ft | 220 kts | 2° |
| 2026-05-07 08:12 | 31.55700 | 74.40481 | 2863 ft | 206 kts | 0° |
| 2026-05-07 08:12 | 31.57108 | 74.39948 | 3017 ft | 228 kts | 321° |
| 2026-05-07 08:12 | 31.58285 | 74.38595 | 3165 ft | 246 kts | 315° |
| 2026-05-07 08:13 | 31.59534 | 74.37139 | 3367 ft | 269 kts | 316° |
| 2026-05-07 08:13 | 31.60837 | 74.35661 | 3821 ft | 279 kts | 316° |
| 2026-05-07 08:13 | 31.62239 | 74.34094 | 4570 ft | 280 kts | 317° |
| 2026-05-07 08:13 | 31.63648 | 74.32540 | 5271 ft | 283 kts | 317° |
| 2026-05-07 08:14 | 31.65081 | 74.30974 | 6047 ft | 284 kts | 317° |
| 2026-05-07 08:14 | 31.66526 | 74.29405 | 6850 ft | 281 kts | 317° |
| 2026-05-07 08:14 | 31.67963 | 74.27849 | 7613 ft | 281 kts | 317° |
| 2026-05-07 08:14 | 31.69392 | 74.26306 | 8321 ft | 282 kts | 317° |
| 2026-05-07 08:15 | 31.70841 | 74.24740 | 9065 ft | 283 kts | 317° |
| 2026-05-07 08:15 | 31.72299 | 74.23168 | 9771 ft | 285 kts | 317° |
| 2026-05-07 08:15 | 31.73775 | 74.21580 | 10272 ft | 294 kts | 317° |
| 2026-05-07 08:15 | 31.75350 | 74.19887 | 10444 ft | 318 kts | 317° |
| 2026-05-07 08:16 | 31.77033 | 74.18076 | 10630 ft | 340 kts | 317° |
| 2026-05-07 08:16 | 31.78832 | 74.16134 | 10829 ft | 361 kts | 317° |
| 2026-05-07 08:16 | 31.80715 | 74.14104 | 11380 ft | 371 kts | 317° |
| 2026-05-07 08:16 | 31.82622 | 74.12048 | 12176 ft | 374 kts | 317° |
| 2026-05-07 08:17 | 31.84555 | 74.09962 | 13024 ft | 378 kts | 318° |
| 2026-05-07 08:17 | 31.86546 | 74.07988 | 13827 ft | 381 kts | 321° |
| 2026-05-07 08:17 | 31.88668 | 74.06074 | 14537 ft | 385 kts | 323° |
| 2026-05-07 08:17 | 31.90830 | 74.04184 | 15226 ft | 390 kts | 323° |
| 2026-05-07 08:18 | 31.93028 | 74.02270 | 15953 ft | 394 kts | 324° |
| 2026-05-07 08:18 | 31.95237 | 74.00334 | 16672 ft | 398 kts | 324° |
| 2026-05-07 08:18 | 31.97461 | 73.98370 | 17367 ft | 403 kts | 323° |
| 2026-05-07 08:18 | 31.99720 | 73.96361 | 18058 ft | 408 kts | 324° |
| 2026-05-07 08:19 | 32.02001 | 73.94324 | 18691 ft | 412 kts | 323° |
| 2026-05-07 08:19 | 32.04275 | 73.92288 | 19376 ft | 414 kts | 323° |
| 2026-05-07 08:19 | 32.06585 | 73.90214 | 20100 ft | 416 kts | 323° |
| 2026-05-07 08:19 | 32.08870 | 73.88162 | 20787 ft | 418 kts | 323° |
| 2026-05-07 08:20 | 32.11190 | 73.86075 | 21449 ft | 421 kts | 323° |
| 2026-05-07 08:20 | 32.13538 | 73.83963 | 21982 ft | 427 kts | 323° |
| 2026-05-07 08:20 | 32.15914 | 73.81824 | 22543 ft | 431 kts | 323° |
| 2026-05-07 08:20 | 32.18301 | 73.79673 | 23199 ft | 433 kts | 323° |
| 2026-05-07 08:21 | 32.20705 | 73.77506 | 23772 ft | 435 kts | 323° |
| 2026-05-07 08:21 | 32.23016 | 73.75285 | 24306 ft | 437 kts | 317° |
| 2026-05-07 08:21 | 32.25090 | 73.72650 | 24857 ft | 440 kts | 310° |
| 2026-05-07 08:21 | 32.26917 | 73.69725 | 25393 ft | 443 kts | 304° |
| 2026-05-07 08:22 | 32.28471 | 73.66574 | 25906 ft | 446 kts | 301° |
| 2026-05-07 08:22 | 32.29963 | 73.63352 | 26464 ft | 445 kts | 301° |
| 2026-05-07 08:22 | 32.31420 | 73.60187 | 27122 ft | 444 kts | 301° |
| 2026-05-07 08:22 | 32.32902 | 73.56971 | 27557 ft | 447 kts | 301° |
| 2026-05-07 08:23 | 32.34404 | 73.53727 | 27868 ft | 453 kts | 301° |
| 2026-05-07 08:23 | 32.35933 | 73.50432 | 28166 ft | 458 kts | 301° |
| 2026-05-07 08:23 | 32.37474 | 73.47119 | 28591 ft | 460 kts | 301° |
| 2026-05-07 08:23 | 32.39005 | 73.43830 | 29047 ft | 460 kts | 301° |
| 2026-05-07 08:24 | 32.40559 | 73.40491 | 29438 ft | 462 kts | 301° |
| 2026-05-07 08:24 | 32.42114 | 73.37150 | 29844 ft | 463 kts | 301° |
| 2026-05-07 08:24 | 32.43644 | 73.33859 | 30281 ft | 461 kts | 301° |
| 2026-05-07 08:24 | 32.45176 | 73.30559 | 30763 ft | 458 kts | 301° |
| 2026-05-07 08:25 | 32.46708 | 73.27255 | 31199 ft | 457 kts | 301° |
| 2026-05-07 08:25 | 32.48259 | 73.23910 | 31625 ft | 455 kts | 301° |
| 2026-05-07 08:25 | 32.49756 | 73.20677 | 32068 ft | 453 kts | 301° |
| 2026-05-07 08:25 | 32.51266 | 73.17415 | 32516 ft | 450 kts | 301° |
| 2026-05-07 08:26 | 32.54248 | 73.10962 | 33361 ft | 446 kts | 301° |
| 2026-05-07 08:26 | 32.55741 | 73.07728 | 33669 ft | 446 kts | 301° |
| 2026-05-07 08:26 | 32.57236 | 73.04489 | 33800 ft | 450 kts | 301° |
| 2026-05-07 08:27 | 32.60230 | 72.97989 | 33847 ft | 448 kts | 301° |
| 2026-05-07 08:27 | 32.63197 | 72.91533 | 33838 ft | 443 kts | 300° |
| 2026-05-07 08:28 | 32.66142 | 72.85115 | 33836 ft | 442 kts | 300° |
| 2026-05-07 08:28 | 32.69098 | 72.78673 | 33905 ft | 444 kts | 301° |
| 2026-05-07 08:29 | 32.70571 | 72.75459 | 34207 ft | 443 kts | 300° |
| 2026-05-07 08:29 | 32.72044 | 72.72233 | 34498 ft | 442 kts | 300° |
| 2026-05-07 08:29 | 32.73507 | 72.69025 | 34808 ft | 441 kts | 300° |
| 2026-05-07 08:29 | 32.74968 | 72.65817 | 35115 ft | 440 kts | 300° |
| 2026-05-07 08:30 | 32.76416 | 72.62636 | 35378 ft | 439 kts | 300° |
| 2026-05-07 08:30 | 32.77856 | 72.59474 | 35661 ft | 437 kts | 300° |
| 2026-05-07 08:30 | 32.79295 | 72.56312 | 35786 ft | 438 kts | 300° |
| 2026-05-07 08:30 | 32.80748 | 72.53117 | 35844 ft | 437 kts | 300° |
| 2026-05-07 08:31 | 32.83619 | 72.46791 | 35836 ft | 431 kts | 300° |
| 2026-05-07 08:31 | 32.86461 | 72.40523 | 35840 ft | 429 kts | 300° |
| 2026-05-07 08:32 | 32.89420 | 72.34400 | 35823 ft | 428 kts | 303° |
| 2026-05-07 08:32 | 32.92584 | 72.28492 | 35836 ft | 428 kts | 304° |
| 2026-05-07 08:33 | 32.95804 | 72.22507 | 35817 ft | 429 kts | 303° |
| 2026-05-07 08:33 | 32.99011 | 72.16480 | 35825 ft | 431 kts | 303° |
| 2026-05-07 08:34 | 33.02204 | 72.10435 | 35815 ft | 432 kts | 303° |
| 2026-05-07 08:34 | 33.05402 | 72.04359 | 35816 ft | 433 kts | 303° |
| 2026-05-07 08:35 | 33.08604 | 71.98265 | 35814 ft | 434 kts | 303° |
| 2026-05-07 08:35 | 33.11807 | 71.92161 | 35811 ft | 434 kts | 303° |
| 2026-05-07 08:36 | 33.15003 | 71.86059 | 35811 ft | 433 kts | 303° |
| 2026-05-07 08:36 | 33.18176 | 71.79993 | 35810 ft | 433 kts | 303° |
| 2026-05-07 08:37 | 33.21360 | 71.73894 | 35809 ft | 433 kts | 303° |
| 2026-05-07 08:37 | 33.24550 | 71.67773 | 35813 ft | 433 kts | 303° |
| 2026-05-07 08:38 | 33.27736 | 71.61652 | 35815 ft | 433 kts | 303° |
| 2026-05-07 08:38 | 33.30918 | 71.55527 | 35809 ft | 433 kts | 303° |
| 2026-05-07 08:39 | 33.34094 | 71.49404 | 35817 ft | 433 kts | 302° |
| 2026-05-07 08:39 | 33.37268 | 71.43273 | 35822 ft | 433 kts | 302° |
| 2026-05-07 08:40 | 33.39907 | 71.38170 | 35819 ft | 434 kts | 302° |
| 2026-05-07 08:40 | 33.42910 | 71.32351 | 35821 ft | 434 kts | 302° |
| 2026-05-07 08:41 | 33.46081 | 71.26200 | 35829 ft | 434 kts | 302° |
| 2026-05-07 08:41 | 33.49255 | 71.20030 | 35836 ft | 434 kts | 302° |
| 2026-05-07 08:42 | 33.52428 | 71.13852 | 35862 ft | 435 kts | 302° |
| 2026-05-07 08:42 | 33.55604 | 71.07658 | 35853 ft | 437 kts | 302° |
| 2026-05-07 08:43 | 33.58772 | 71.01471 | 35879 ft | 440 kts | 302° |
| 2026-05-07 08:43 | 33.61966 | 70.95217 | 35869 ft | 440 kts | 302° |
| 2026-05-07 08:44 | 33.65152 | 70.88974 | 35879 ft | 439 kts | 302° |
| 2026-05-07 08:44 | 33.68328 | 70.82738 | 35879 ft | 437 kts | 302° |
| 2026-05-07 08:45 | 33.71477 | 70.76542 | 35916 ft | 437 kts | 302° |
| 2026-05-07 08:45 | 33.74644 | 70.70302 | 35912 ft | 437 kts | 302° |
| 2026-05-07 08:46 | 33.77803 | 70.64064 | 35918 ft | 437 kts | 302° |
| 2026-05-07 08:46 | 33.80972 | 70.57802 | 35918 ft | 439 kts | 302° |
| 2026-05-07 08:47 | 33.84143 | 70.51521 | 35900 ft | 438 kts | 302° |
| 2026-05-07 08:47 | 33.87304 | 70.45245 | 35891 ft | 437 kts | 301° |
| 2026-05-07 08:48 | 33.90419 | 70.39038 | 35956 ft | 435 kts | 302° |
| 2026-05-07 08:48 | 33.93573 | 70.32773 | 35922 ft | 437 kts | 302° |
| 2026-05-07 08:49 | 33.96715 | 70.26512 | 35900 ft | 439 kts | 302° |
| 2026-05-07 08:49 | 33.99871 | 70.20204 | 35908 ft | 439 kts | 302° |
| 2026-05-07 08:50 | 34.03003 | 70.13932 | 35894 ft | 436 kts | 301° |
| 2026-05-07 08:50 | 34.06111 | 70.07700 | 35891 ft | 433 kts | 301° |
| 2026-05-07 08:51 | 34.09207 | 70.01481 | 35899 ft | 432 kts | 301° |
| 2026-05-07 08:51 | 34.12312 | 69.95235 | 35912 ft | 435 kts | 301° |
| 2026-05-07 08:52 | 34.15433 | 69.88942 | 35918 ft | 438 kts | 301° |
| 2026-05-07 08:52 | 34.18575 | 69.82598 | 35883 ft | 439 kts | 301° |
| 2026-05-07 08:53 | 34.21704 | 69.76267 | 35923 ft | 439 kts | 301° |
| 2026-05-07 08:53 | 34.24811 | 69.69971 | 35897 ft | 439 kts | 301° |
| 2026-05-07 08:54 | 34.27927 | 69.63645 | 35925 ft | 437 kts | 301° |
| 2026-05-07 08:54 | 34.31039 | 69.57310 | 35886 ft | 437 kts | 301° |
| 2026-05-07 08:55 | 34.34148 | 69.50988 | 35893 ft | 437 kts | 301° |
| 2026-05-07 08:55 | 34.37247 | 69.44655 | 35897 ft | 438 kts | 301° |
| 2026-05-07 08:56 | 34.40359 | 69.38291 | 35882 ft | 439 kts | 301° |
| 2026-05-07 08:56 | 34.43462 | 69.31935 | 35878 ft | 439 kts | 301° |
| 2026-05-07 08:57 | 34.46574 | 69.25548 | 35888 ft | 440 kts | 301° |
| 2026-05-07 08:57 | 34.49731 | 69.19229 | 35860 ft | 440 kts | 306° |
| 2026-05-07 08:58 | 34.54025 | 69.13926 | 35885 ft | 440 kts | 319° |
| 2026-05-07 08:58 | 34.59206 | 69.09996 | 35923 ft | 442 kts | 329° |
| 2026-05-07 08:59 | 34.64673 | 69.06544 | 35904 ft | 442 kts | 330° |
| 2026-05-07 08:59 | 34.70131 | 69.03080 | 35898 ft | 442 kts | 329° |
| 2026-05-07 09:00 | 34.75562 | 68.99582 | 35901 ft | 442 kts | 329° |
| 2026-05-07 09:00 | 34.80933 | 68.96101 | 35945 ft | 441 kts | 329° |
| 2026-05-07 09:01 | 34.86389 | 68.92557 | 35970 ft | 442 kts | 329° |
| 2026-05-07 09:01 | 34.91804 | 68.89031 | 35959 ft | 444 kts | 329° |
| 2026-05-07 09:02 | 34.97256 | 68.85478 | 36018 ft | 445 kts | 329° |
| 2026-05-07 09:02 | 35.02714 | 68.81917 | 36031 ft | 444 kts | 329° |
| 2026-05-07 09:03 | 35.08164 | 68.78355 | 36059 ft | 443 kts | 329° |
| 2026-05-07 09:03 | 35.13613 | 68.74790 | 36082 ft | 445 kts | 329° |
| 2026-05-07 09:04 | 35.19065 | 68.71220 | 36082 ft | 449 kts | 329° |
| 2026-05-07 09:04 | 35.24561 | 68.67605 | 36104 ft | 449 kts | 329° |
| 2026-05-07 09:05 | 35.30058 | 68.63991 | 36106 ft | 447 kts | 329° |
| 2026-05-07 09:05 | 35.35533 | 68.60386 | 36108 ft | 447 kts | 329° |
| 2026-05-07 09:06 | 35.40988 | 68.56787 | 36087 ft | 448 kts | 329° |
| 2026-05-07 09:06 | 35.46494 | 68.53149 | 36075 ft | 448 kts | 329° |
| 2026-05-07 09:07 | 35.51991 | 68.49513 | 36083 ft | 448 kts | 329° |
| 2026-05-07 09:07 | 35.57501 | 68.45860 | 36067 ft | 449 kts | 329° |
| 2026-05-07 09:08 | 35.62973 | 68.42222 | 36050 ft | 450 kts | 329° |
| 2026-05-07 09:08 | 35.68491 | 68.38526 | 36056 ft | 451 kts | 328° |
| 2026-05-07 09:09 | 35.74015 | 68.34818 | 36049 ft | 453 kts | 329° |
| 2026-05-07 09:09 | 35.79546 | 68.31101 | 36062 ft | 454 kts | 329° |
| 2026-05-07 09:10 | 35.85112 | 68.27356 | 36049 ft | 455 kts | 329° |
| 2026-05-07 09:10 | 35.90667 | 68.23613 | 36035 ft | 454 kts | 328° |
| 2026-05-07 09:11 | 35.96211 | 68.19871 | 35987 ft | 454 kts | 329° |
| 2026-05-07 09:11 | 36.01723 | 68.16145 | 36031 ft | 454 kts | 328° |
| 2026-05-07 09:12 | 36.07297 | 68.12370 | 36007 ft | 453 kts | 328° |
| 2026-05-07 09:12 | 36.12792 | 68.08643 | 36004 ft | 453 kts | 328° |
| 2026-05-07 09:13 | 36.18330 | 68.04881 | 35990 ft | 454 kts | 328° |
| 2026-05-07 09:13 | 36.23868 | 68.01111 | 35976 ft | 454 kts | 328° |
| 2026-05-07 09:14 | 36.29422 | 67.97325 | 35965 ft | 455 kts | 328° |
| 2026-05-07 09:14 | 36.34923 | 67.93570 | 35960 ft | 455 kts | 328° |
| 2026-05-07 09:15 | 36.40484 | 67.89767 | 35959 ft | 456 kts | 328° |
| 2026-05-07 09:15 | 36.46061 | 67.85947 | 35943 ft | 457 kts | 328° |
| 2026-05-07 09:16 | 36.51625 | 67.82130 | 35940 ft | 457 kts | 328° |
| 2026-05-07 09:16 | 36.57200 | 67.78298 | 35942 ft | 458 kts | 328° |
| 2026-05-07 09:17 | 36.62772 | 67.74462 | 35945 ft | 458 kts | 328° |
| 2026-05-07 09:17 | 36.68366 | 67.70604 | 35941 ft | 459 kts | 328° |
| 2026-05-07 09:18 | 36.73919 | 67.66772 | 35940 ft | 459 kts | 328° |
| 2026-05-07 09:18 | 36.79520 | 67.62919 | 35927 ft | 459 kts | 328° |
| 2026-05-07 09:19 | 36.85111 | 67.59067 | 35918 ft | 459 kts | 328° |
| 2026-05-07 09:19 | 36.90690 | 67.55215 | 35917 ft | 458 kts | 328° |
| 2026-05-07 09:20 | 36.96287 | 67.51341 | 35913 ft | 458 kts | 328° |
| 2026-05-07 09:20 | 37.01826 | 67.47502 | 35903 ft | 458 kts | 328° |
| 2026-05-07 09:21 | 37.07416 | 67.43621 | 35905 ft | 458 kts | 328° |
| 2026-05-07 09:21 | 37.12045 | 67.40402 | 35902 ft | 458 kts | 328° |
| 2026-05-07 09:22 | 37.17633 | 67.36517 | 35906 ft | 459 kts | 329° |
| 2026-05-07 09:22 | 37.23522 | 67.33396 | 35907 ft | 463 kts | 340° |
| 2026-05-07 09:23 | 37.29683 | 67.31049 | 35911 ft | 462 kts | 336° |
| 2026-05-07 09:23 | 37.35459 | 67.27542 | 35918 ft | 460 kts | 329° |
| 2026-05-07 09:24 | 37.41092 | 67.23789 | 35916 ft | 461 kts | 329° |
| 2026-05-07 09:24 | 37.46782 | 67.20039 | 35904 ft | 462 kts | 330° |
| 2026-05-07 09:25 | 37.52499 | 67.16304 | 35926 ft | 463 kts | 330° |
| 2026-05-07 09:25 | 37.58222 | 67.12565 | 35920 ft | 463 kts | 330° |
| 2026-05-07 09:26 | 37.63948 | 67.08814 | 35916 ft | 463 kts | 330° |
| 2026-05-07 09:26 | 37.69648 | 67.05001 | 35928 ft | 462 kts | 327° |
| 2026-05-07 09:27 | 37.74964 | 67.00475 | 35955 ft | 460 kts | 323° |
| 2026-05-07 09:28 | 37.82807 | 66.93563 | 35963 ft | 460 kts | 323° |
| 2026-05-07 09:28 | 37.88084 | 66.88952 | 35972 ft | 460 kts | 323° |
| 2026-05-07 09:29 | 37.93359 | 66.84346 | 35994 ft | 460 kts | 323° |
| 2026-05-07 09:29 | 37.98624 | 66.79737 | 35997 ft | 460 kts | 323° |
| 2026-05-07 09:30 | 38.03893 | 66.75118 | 36003 ft | 460 kts | 323° |
| 2026-05-07 09:30 | 38.09169 | 66.70486 | 36002 ft | 460 kts | 323° |
| 2026-05-07 09:31 | 38.14414 | 66.65872 | 36006 ft | 461 kts | 323° |
| 2026-05-07 09:31 | 38.19691 | 66.61222 | 35995 ft | 461 kts | 323° |
| 2026-05-07 09:32 | 38.24969 | 66.56561 | 35989 ft | 462 kts | 322° |
| 2026-05-07 09:32 | 38.30251 | 66.51889 | 35970 ft | 462 kts | 322° |
| 2026-05-07 09:33 | 38.35500 | 66.47237 | 35967 ft | 461 kts | 322° |
| 2026-05-07 09:33 | 38.40758 | 66.42570 | 35961 ft | 461 kts | 322° |
| 2026-05-07 09:34 | 38.46016 | 66.37893 | 35946 ft | 461 kts | 322° |
| 2026-05-07 09:34 | 38.51277 | 66.33204 | 35931 ft | 461 kts | 322° |
| 2026-05-07 09:35 | 38.56534 | 66.28512 | 35931 ft | 461 kts | 322° |
| 2026-05-07 09:35 | 38.61924 | 66.24030 | 35903 ft | 464 kts | 328° |
| 2026-05-07 09:36 | 38.67856 | 66.20706 | 35925 ft | 467 kts | 336° |
| 2026-05-07 09:36 | 38.73943 | 66.17781 | 35903 ft | 467 kts | 336° |
| 2026-05-07 09:37 | 38.79987 | 66.14849 | 35909 ft | 467 kts | 336° |
| 2026-05-07 09:37 | 38.86065 | 66.11860 | 35908 ft | 468 kts | 335° |
| 2026-05-07 09:38 | 38.92145 | 66.08852 | 35903 ft | 468 kts | 335° |
| 2026-05-07 09:38 | 38.98232 | 66.05834 | 35904 ft | 469 kts | 335° |
| 2026-05-07 09:39 | 39.04332 | 66.02806 | 35911 ft | 469 kts | 335° |
| 2026-05-07 09:39 | 39.10386 | 65.99795 | 35905 ft | 470 kts | 335° |
| 2026-05-07 09:40 | 39.16490 | 65.96754 | 35897 ft | 470 kts | 335° |
| 2026-05-07 09:40 | 39.22599 | 65.93705 | 35911 ft | 470 kts | 335° |
| 2026-05-07 09:41 | 39.28432 | 65.90787 | 35906 ft | 471 kts | 335° |
| 2026-05-07 09:41 | 39.34514 | 65.87741 | 35904 ft | 472 kts | 335° |
| 2026-05-07 09:42 | 39.40640 | 65.84667 | 35911 ft | 472 kts | 335° |
| 2026-05-07 09:42 | 39.46762 | 65.81588 | 35910 ft | 472 kts | 335° |
| 2026-05-07 09:43 | 39.52902 | 65.78494 | 35915 ft | 472 kts | 335° |
| 2026-05-07 09:43 | 39.59033 | 65.75399 | 35933 ft | 472 kts | 335° |
| 2026-05-07 09:44 | 39.65123 | 65.72318 | 35911 ft | 473 kts | 335° |
| 2026-05-07 09:44 | 39.71249 | 65.69213 | 35912 ft | 473 kts | 335° |
| 2026-05-07 09:45 | 39.77375 | 65.66104 | 35931 ft | 473 kts | 335° |
| 2026-05-07 09:45 | 39.83504 | 65.62986 | 35916 ft | 473 kts | 335° |
| 2026-05-07 09:46 | 39.89633 | 65.59861 | 35910 ft | 472 kts | 335° |
| 2026-05-07 09:46 | 39.95745 | 65.56739 | 35929 ft | 472 kts | 335° |
| 2026-05-07 09:47 | 40.01854 | 65.53611 | 35922 ft | 472 kts | 335° |
| 2026-05-07 09:47 | 40.07961 | 65.50477 | 35915 ft | 471 kts | 334° |
| 2026-05-07 09:48 | 40.14069 | 65.47321 | 35925 ft | 471 kts | 334° |
| 2026-05-07 09:48 | 40.20174 | 65.44159 | 35916 ft | 472 kts | 334° |
| 2026-05-07 09:49 | 40.26238 | 65.41014 | 35905 ft | 472 kts | 334° |
| 2026-05-07 09:49 | 40.32340 | 65.37844 | 35925 ft | 472 kts | 334° |
| 2026-05-07 09:50 | 40.38447 | 65.34665 | 35898 ft | 472 kts | 334° |
| 2026-05-07 09:50 | 40.44559 | 65.31477 | 35903 ft | 472 kts | 334° |
| 2026-05-07 09:51 | 40.50629 | 65.28304 | 35897 ft | 472 kts | 334° |
| 2026-05-07 09:51 | 40.56718 | 65.25117 | 35890 ft | 472 kts | 334° |
| 2026-05-07 09:52 | 40.62830 | 65.21924 | 35886 ft | 472 kts | 334° |
| 2026-05-07 09:52 | 40.68950 | 65.18723 | 35888 ft | 472 kts | 334° |
| 2026-05-07 09:53 | 40.75054 | 65.15522 | 35875 ft | 473 kts | 334° |
| 2026-05-07 09:53 | 40.81168 | 65.12309 | 35875 ft | 473 kts | 334° |
| 2026-05-07 09:54 | 40.87244 | 65.09110 | 35881 ft | 473 kts | 334° |
| 2026-05-07 09:54 | 40.93361 | 65.05890 | 35870 ft | 473 kts | 334° |
| 2026-05-07 09:55 | 40.99483 | 65.02662 | 35864 ft | 473 kts | 334° |
| 2026-05-07 09:55 | 41.05598 | 64.99431 | 35875 ft | 473 kts | 334° |
| 2026-05-07 09:56 | 41.11674 | 64.96213 | 35862 ft | 473 kts | 334° |
| 2026-05-07 09:56 | 41.17788 | 64.92968 | 35863 ft | 473 kts | 334° |
| 2026-05-07 09:57 | 41.23893 | 64.89722 | 35871 ft | 473 kts | 334° |
| 2026-05-07 09:57 | 41.30002 | 64.86463 | 35869 ft | 473 kts | 334° |
| 2026-05-07 09:58 | 41.36114 | 64.83194 | 35871 ft | 473 kts | 334° |
| 2026-05-07 09:58 | 41.42220 | 64.79922 | 35875 ft | 473 kts | 334° |
| 2026-05-07 09:59 | 41.48349 | 64.76631 | 35876 ft | 474 kts | 334° |
| 2026-05-07 09:59 | 41.54438 | 64.73356 | 35874 ft | 474 kts | 334° |
| 2026-05-07 10:00 | 41.60570 | 64.70050 | 35879 ft | 476 kts | 334° |
| 2026-05-07 10:00 | 41.66718 | 64.66729 | 35882 ft | 476 kts | 334° |
| 2026-05-07 10:01 | 41.72866 | 64.63400 | 35891 ft | 477 kts | 333° |
| 2026-05-07 10:01 | 41.79040 | 64.60031 | 35872 ft | 478 kts | 333° |
| 2026-05-07 10:02 | 41.85146 | 64.56606 | 35871 ft | 478 kts | 333° |
| 2026-05-07 10:02 | 41.91270 | 64.53151 | 35873 ft | 479 kts | 333° |
| 2026-05-07 10:03 | 41.97433 | 64.49678 | 35869 ft | 479 kts | 333° |
| 2026-05-07 10:03 | 42.03584 | 64.46211 | 35867 ft | 480 kts | 333° |
| 2026-05-07 10:04 | 42.09752 | 64.42727 | 35868 ft | 480 kts | 333° |
| 2026-05-07 10:04 | 42.15896 | 64.39249 | 35866 ft | 481 kts | 333° |
| 2026-05-07 10:05 | 42.22063 | 64.35752 | 35868 ft | 481 kts | 333° |
| 2026-05-07 10:05 | 42.28241 | 64.32239 | 35870 ft | 481 kts | 333° |
| 2026-05-07 10:06 | 42.34414 | 64.28722 | 35869 ft | 481 kts | 333° |
| 2026-05-07 10:06 | 42.40587 | 64.25197 | 35882 ft | 481 kts | 333° |
| 2026-05-07 10:07 | 42.45724 | 64.22260 | 35873 ft | 482 kts | 333° |
| 2026-05-07 10:07 | 42.52941 | 64.18214 | 35867 ft | 482 kts | 333° |
| 2026-05-07 10:08 | 42.58973 | 64.14355 | 35868 ft | 477 kts | 325° |
| 2026-05-07 10:08 | 42.63503 | 64.10052 | 35873 ft | 472 kts | 316° |
| 2026-05-07 10:09 | 42.68530 | 64.04332 | 35862 ft | 472 kts | 316° |
| 2026-05-07 10:09 | 42.73532 | 63.98627 | 35880 ft | 472 kts | 316° |
| 2026-05-07 10:10 | 42.78623 | 63.92869 | 35876 ft | 473 kts | 316° |
| 2026-05-07 10:10 | 42.83662 | 63.87181 | 35873 ft | 473 kts | 316° |
| 2026-05-07 10:11 | 42.88732 | 63.81446 | 35887 ft | 474 kts | 316° |
| 2026-05-07 10:11 | 42.93798 | 63.75698 | 35868 ft | 474 kts | 316° |
| 2026-05-07 10:12 | 42.98866 | 63.69936 | 35865 ft | 474 kts | 315° |
| 2026-05-07 10:12 | 43.03922 | 63.64174 | 35885 ft | 474 kts | 315° |
| 2026-05-07 10:13 | 43.09001 | 63.58370 | 35876 ft | 474 kts | 315° |
| 2026-05-07 10:13 | 43.14035 | 63.52605 | 35874 ft | 475 kts | 315° |
| 2026-05-07 10:14 | 43.19101 | 63.46792 | 35894 ft | 475 kts | 315° |
| 2026-05-07 10:14 | 43.24175 | 63.40954 | 35886 ft | 475 kts | 315° |
| 2026-05-07 10:15 | 43.29249 | 63.35105 | 35882 ft | 476 kts | 315° |
| 2026-05-07 10:15 | 43.34280 | 63.29292 | 35908 ft | 476 kts | 314° |
| 2026-05-07 10:16 | 43.39358 | 63.23408 | 35888 ft | 477 kts | 314° |
| 2026-05-07 10:16 | 43.44440 | 63.17505 | 35880 ft | 478 kts | 314° |
| 2026-05-07 10:17 | 43.49530 | 63.11578 | 35875 ft | 479 kts | 314° |
| 2026-05-07 10:17 | 43.54622 | 63.05636 | 35882 ft | 480 kts | 314° |
| 2026-05-07 10:18 | 43.59726 | 62.99667 | 35870 ft | 481 kts | 314° |
| 2026-05-07 10:18 | 43.64794 | 62.93736 | 35866 ft | 481 kts | 314° |
| 2026-05-07 10:19 | 43.69911 | 62.87759 | 35853 ft | 481 kts | 314° |
| 2026-05-07 10:19 | 43.75020 | 62.81773 | 35850 ft | 481 kts | 314° |
| 2026-05-07 10:20 | 43.80098 | 62.75799 | 35860 ft | 480 kts | 314° |
| 2026-05-07 10:20 | 43.85189 | 62.69792 | 35852 ft | 480 kts | 314° |
| 2026-05-07 10:21 | 43.90275 | 62.63778 | 35846 ft | 480 kts | 314° |
| 2026-05-07 10:21 | 43.95353 | 62.57759 | 35861 ft | 479 kts | 313° |
| 2026-05-07 10:22 | 44.00383 | 62.51782 | 35859 ft | 479 kts | 313° |
| 2026-05-07 10:22 | 44.05452 | 62.45746 | 35854 ft | 479 kts | 313° |
| 2026-05-07 10:23 | 44.10512 | 62.39707 | 35857 ft | 479 kts | 313° |
| 2026-05-07 10:23 | 44.15563 | 62.33664 | 35866 ft | 479 kts | 313° |
| 2026-05-07 10:24 | 44.20597 | 62.27625 | 35861 ft | 479 kts | 313° |
| 2026-05-07 10:24 | 44.25634 | 62.21549 | 35864 ft | 479 kts | 313° |
| 2026-05-07 10:25 | 44.30671 | 62.15455 | 35873 ft | 480 kts | 313° |
| 2026-05-07 10:25 | 44.35720 | 62.09333 | 35865 ft | 480 kts | 313° |
| 2026-05-07 10:26 | 44.40775 | 62.03191 | 35866 ft | 481 kts | 313° |
| 2026-05-07 10:26 | 44.45820 | 61.97047 | 35889 ft | 482 kts | 313° |
| 2026-05-07 10:27 | 44.50882 | 61.90867 | 35866 ft | 483 kts | 312° |
| 2026-05-07 10:27 | 44.55960 | 61.84653 | 35863 ft | 484 kts | 312° |
| 2026-05-07 10:28 | 44.61008 | 61.78461 | 35893 ft | 484 kts | 312° |
| 2026-05-07 10:28 | 44.66089 | 61.72213 | 35865 ft | 485 kts | 312° |
| 2026-05-07 10:29 | 44.71152 | 61.65974 | 35865 ft | 484 kts | 312° |
| 2026-05-07 10:29 | 44.76223 | 61.59708 | 35864 ft | 484 kts | 312° |
| 2026-05-07 10:30 | 44.83763 | 61.50362 | 35875 ft | 483 kts | 312° |
| 2026-05-07 10:30 | 44.88795 | 61.44107 | 35872 ft | 482 kts | 312° |
| 2026-05-07 10:31 | 44.93818 | 61.37856 | 35907 ft | 482 kts | 312° |
| 2026-05-07 10:31 | 44.98862 | 61.31572 | 35886 ft | 482 kts | 312° |
| 2026-05-07 10:32 | 45.03890 | 61.25291 | 35888 ft | 482 kts | 312° |
| 2026-05-07 10:32 | 45.08880 | 61.19041 | 35888 ft | 481 kts | 311° |
| 2026-05-07 10:33 | 45.13904 | 61.12731 | 35901 ft | 482 kts | 311° |
| 2026-05-07 10:33 | 45.18922 | 61.06413 | 35892 ft | 482 kts | 311° |
| 2026-05-07 10:34 | 45.23934 | 61.00089 | 35894 ft | 482 kts | 311° |
| 2026-05-07 10:34 | 45.28934 | 60.93762 | 35900 ft | 483 kts | 311° |
| 2026-05-07 10:35 | 45.33960 | 60.87387 | 35899 ft | 483 kts | 311° |
| 2026-05-07 10:35 | 45.38943 | 60.81054 | 35908 ft | 483 kts | 311° |
| 2026-05-07 10:36 | 45.43953 | 60.74669 | 35890 ft | 482 kts | 311° |
| 2026-05-07 10:36 | 45.48944 | 60.68291 | 35890 ft | 482 kts | 311° |
| 2026-05-07 10:37 | 45.53917 | 60.61919 | 35904 ft | 482 kts | 311° |
| 2026-05-07 10:37 | 45.58903 | 60.55512 | 35933 ft | 482 kts | 311° |
| 2026-05-07 10:38 | 45.63888 | 60.49091 | 35904 ft | 483 kts | 311° |
| 2026-05-07 10:38 | 45.68877 | 60.42650 | 35906 ft | 483 kts | 311° |
| 2026-05-07 10:39 | 45.73864 | 60.36194 | 35897 ft | 483 kts | 311° |
| 2026-05-07 10:39 | 45.78840 | 60.29737 | 35904 ft | 484 kts | 311° |
| 2026-05-07 10:40 | 45.83827 | 60.23249 | 35894 ft | 484 kts | 311° |
| 2026-05-07 10:40 | 45.88585 | 60.17043 | 35899 ft | 484 kts | 311° |
| 2026-05-07 10:41 | 45.93566 | 60.10531 | 35905 ft | 485 kts | 311° |
| 2026-05-07 10:41 | 45.98557 | 60.03989 | 35893 ft | 485 kts | 311° |
| 2026-05-07 10:42 | 46.03538 | 59.97444 | 35892 ft | 485 kts | 311° |
| 2026-05-07 10:42 | 46.08513 | 59.90889 | 35926 ft | 484 kts | 311° |
| 2026-05-07 10:43 | 46.13459 | 59.84356 | 35893 ft | 485 kts | 311° |
| 2026-05-07 10:43 | 46.18428 | 59.77775 | 35882 ft | 484 kts | 311° |
| 2026-05-07 10:44 | 46.23376 | 59.71200 | 35888 ft | 483 kts | 310° |
| 2026-05-07 10:44 | 46.28180 | 59.64433 | 35887 ft | 481 kts | 308° |
| 2026-05-07 10:45 | 46.32901 | 59.57570 | 35892 ft | 481 kts | 308° |
| 2026-05-07 10:45 | 46.37625 | 59.50718 | 35888 ft | 481 kts | 308° |
| 2026-05-07 10:46 | 46.42367 | 59.43869 | 35890 ft | 481 kts | 309° |
| 2026-05-07 10:46 | 46.47081 | 59.37061 | 35889 ft | 481 kts | 309° |
| 2026-05-07 10:47 | 46.51817 | 59.30202 | 35890 ft | 481 kts | 309° |
| 2026-05-07 10:47 | 46.56565 | 59.23305 | 35887 ft | 481 kts | 309° |
| 2026-05-07 10:48 | 46.61289 | 59.16424 | 35895 ft | 483 kts | 309° |
| 2026-05-07 10:48 | 46.66033 | 59.09497 | 35887 ft | 483 kts | 309° |
| 2026-05-07 10:49 | 46.70775 | 59.02554 | 35883 ft | 483 kts | 309° |
| 2026-05-07 10:49 | 46.75519 | 58.95590 | 35898 ft | 484 kts | 309° |
| 2026-05-07 10:50 | 46.80233 | 58.88650 | 35891 ft | 484 kts | 309° |
| 2026-05-07 10:50 | 46.84980 | 58.81644 | 35892 ft | 485 kts | 309° |
| 2026-05-07 10:51 | 46.89726 | 58.74621 | 35893 ft | 485 kts | 309° |
| 2026-05-07 10:51 | 46.94472 | 58.67580 | 35906 ft | 486 kts | 309° |
| 2026-05-07 10:52 | 46.98419 | 58.61709 | 35881 ft | 486 kts | 309° |
| 2026-05-07 10:52 | 47.03926 | 58.53496 | 35880 ft | 486 kts | 309° |
| 2026-05-07 10:53 | 47.07861 | 58.47610 | 35897 ft | 486 kts | 309° |
| 2026-05-07 10:53 | 47.12590 | 58.40521 | 35893 ft | 486 kts | 309° |
| 2026-05-07 10:54 | 47.17313 | 58.33421 | 35877 ft | 486 kts | 309° |
| 2026-05-07 10:54 | 47.22031 | 58.26308 | 35889 ft | 486 kts | 309° |
| 2026-05-07 10:55 | 47.26756 | 58.19167 | 35902 ft | 486 kts | 309° |
| 2026-05-07 10:55 | 47.31467 | 58.12030 | 35888 ft | 486 kts | 309° |
| 2026-05-07 10:56 | 47.36182 | 58.04880 | 35885 ft | 486 kts | 309° |
| 2026-05-07 10:56 | 47.40844 | 57.97790 | 35906 ft | 486 kts | 309° |
| 2026-05-07 10:57 | 47.45552 | 57.90609 | 35887 ft | 486 kts | 309° |
| 2026-05-07 10:57 | 47.50262 | 57.83406 | 35885 ft | 486 kts | 309° |
| 2026-05-07 10:58 | 47.54959 | 57.76201 | 35887 ft | 486 kts | 309° |
| 2026-05-07 10:58 | 47.59660 | 57.68970 | 35889 ft | 487 kts | 309° |
| 2026-05-07 10:59 | 47.64354 | 57.61732 | 35883 ft | 487 kts | 309° |
| 2026-05-07 10:59 | 47.69052 | 57.54453 | 35882 ft | 487 kts | 309° |
| 2026-05-07 11:00 | 47.73737 | 57.47169 | 35900 ft | 487 kts | 309° |
| 2026-05-07 11:00 | 47.78383 | 57.39924 | 35885 ft | 487 kts | 309° |
| 2026-05-07 11:01 | 47.83059 | 57.32612 | 35880 ft | 487 kts | 309° |
| 2026-05-07 11:01 | 47.87737 | 57.25279 | 35880 ft | 487 kts | 309° |
| 2026-05-07 11:02 | 47.92414 | 57.17926 | 35886 ft | 488 kts | 309° |
| 2026-05-07 11:02 | 47.97050 | 57.10617 | 35875 ft | 488 kts | 309° |
| 2026-05-07 11:03 | 48.01720 | 57.03234 | 35872 ft | 488 kts | 309° |
| 2026-05-07 11:03 | 48.06370 | 56.95862 | 35888 ft | 488 kts | 309° |
| 2026-05-07 11:04 | 48.11039 | 56.88438 | 35868 ft | 489 kts | 309° |
| 2026-05-07 11:04 | 48.15702 | 56.81002 | 35870 ft | 490 kts | 309° |
| 2026-05-07 11:05 | 48.20363 | 56.73548 | 35864 ft | 490 kts | 309° |
| 2026-05-07 11:05 | 48.24998 | 56.66114 | 35870 ft | 491 kts | 309° |
| 2026-05-07 11:06 | 48.29666 | 56.58609 | 35858 ft | 491 kts | 309° |
| 2026-05-07 11:06 | 48.34326 | 56.51095 | 35857 ft | 491 kts | 309° |
| 2026-05-07 11:07 | 48.38982 | 56.43564 | 35857 ft | 491 kts | 309° |
| 2026-05-07 11:07 | 48.43605 | 56.36064 | 35861 ft | 491 kts | 309° |
| 2026-05-07 11:08 | 48.48255 | 56.28499 | 35856 ft | 492 kts | 309° |
| 2026-05-07 11:08 | 48.52907 | 56.20911 | 35855 ft | 492 kts | 309° |
| 2026-05-07 11:09 | 48.57547 | 56.13323 | 35870 ft | 492 kts | 310° |
| 2026-05-07 11:09 | 48.62186 | 56.05717 | 35858 ft | 492 kts | 310° |
| 2026-05-07 11:10 | 48.66825 | 55.98089 | 35860 ft | 493 kts | 310° |
| 2026-05-07 11:10 | 48.71469 | 55.90440 | 35856 ft | 493 kts | 310° |
| 2026-05-07 11:11 | 48.76119 | 55.82788 | 35861 ft | 493 kts | 310° |
| 2026-05-07 11:11 | 48.80738 | 55.75163 | 35860 ft | 493 kts | 310° |
| 2026-05-07 11:12 | 48.85383 | 55.67471 | 35861 ft | 493 kts | 309° |
| 2026-05-07 11:12 | 48.90004 | 55.59767 | 35880 ft | 493 kts | 310° |
| 2026-05-07 11:13 | 48.94625 | 55.52027 | 35865 ft | 494 kts | 310° |
| 2026-05-07 11:13 | 48.99235 | 55.44285 | 35867 ft | 494 kts | 310° |
| 2026-05-07 11:14 | 49.03819 | 55.36567 | 35878 ft | 494 kts | 310° |
| 2026-05-07 11:14 | 49.08415 | 55.28803 | 35872 ft | 493 kts | 310° |
| 2026-05-07 11:15 | 49.13005 | 55.21029 | 35870 ft | 492 kts | 310° |
| 2026-05-07 11:15 | 49.17590 | 55.13242 | 35866 ft | 492 kts | 310° |
| 2026-05-07 11:16 | 49.22158 | 55.05457 | 35870 ft | 491 kts | 310° |
| 2026-05-07 11:16 | 49.26718 | 54.97659 | 35859 ft | 491 kts | 310° |
| 2026-05-07 11:17 | 49.31247 | 54.89891 | 35863 ft | 492 kts | 310° |
| 2026-05-07 11:17 | 49.35805 | 54.82048 | 35863 ft | 492 kts | 310° |
| 2026-05-07 11:18 | 49.40362 | 54.74185 | 35867 ft | 493 kts | 310° |
| 2026-05-07 11:18 | 49.44920 | 54.66296 | 35884 ft | 494 kts | 310° |
| 2026-05-07 11:19 | 49.49482 | 54.58377 | 35863 ft | 495 kts | 310° |
| 2026-05-07 11:19 | 49.54041 | 54.50438 | 35868 ft | 495 kts | 310° |
| 2026-05-07 11:20 | 49.58605 | 54.42466 | 35871 ft | 496 kts | 310° |
| 2026-05-07 11:20 | 49.63173 | 54.34462 | 35877 ft | 497 kts | 310° |
| 2026-05-07 11:21 | 49.67706 | 54.26496 | 35871 ft | 497 kts | 310° |
| 2026-05-07 11:21 | 49.72265 | 54.18459 | 35875 ft | 497 kts | 310° |
| 2026-05-07 11:22 | 49.76825 | 54.10393 | 35865 ft | 497 kts | 311° |
| 2026-05-07 11:22 | 49.81363 | 54.02344 | 35864 ft | 497 kts | 311° |
| 2026-05-07 11:23 | 49.85902 | 53.94267 | 35867 ft | 497 kts | 311° |
| 2026-05-07 11:23 | 49.90408 | 53.86225 | 35885 ft | 497 kts | 311° |
| 2026-05-07 11:24 | 49.94943 | 53.78104 | 35868 ft | 497 kts | 311° |
| 2026-05-07 11:24 | 49.99456 | 53.69996 | 35870 ft | 497 kts | 311° |
| 2026-05-07 11:25 | 50.03964 | 53.61871 | 35871 ft | 496 kts | 311° |
| 2026-05-07 11:25 | 50.08468 | 53.53726 | 35876 ft | 496 kts | 311° |
| 2026-05-07 11:26 | 50.12941 | 53.45614 | 35882 ft | 496 kts | 311° |
| 2026-05-07 11:26 | 50.17430 | 53.37446 | 35870 ft | 496 kts | 311° |
| 2026-05-07 11:27 | 50.21911 | 53.29267 | 35882 ft | 495 kts | 311° |
| 2026-05-07 11:27 | 50.26379 | 53.21086 | 35885 ft | 494 kts | 311° |
| 2026-05-07 11:28 | 50.30837 | 53.12897 | 35877 ft | 493 kts | 311° |
| 2026-05-07 11:28 | 50.35264 | 53.04740 | 35879 ft | 492 kts | 311° |
| 2026-05-07 11:29 | 50.39688 | 52.96561 | 35879 ft | 492 kts | 311° |
| 2026-05-07 11:29 | 50.44103 | 52.88375 | 35880 ft | 491 kts | 311° |
| 2026-05-07 11:30 | 50.48483 | 52.80227 | 35883 ft | 491 kts | 311° |
| 2026-05-07 11:30 | 50.52891 | 52.72001 | 35884 ft | 491 kts | 311° |
| 2026-05-07 11:31 | 50.57291 | 52.63765 | 35881 ft | 492 kts | 311° |
| 2026-05-07 11:31 | 50.61681 | 52.55519 | 35880 ft | 491 kts | 311° |
| 2026-05-07 11:32 | 50.68252 | 52.43130 | 35881 ft | 491 kts | 311° |
| 2026-05-07 11:33 | 50.72624 | 52.34903 | 35878 ft | 490 kts | 311° |
| 2026-05-07 11:33 | 50.76987 | 52.26725 | 35877 ft | 489 kts | 311° |
| 2026-05-07 11:34 | 50.81359 | 52.18501 | 35887 ft | 488 kts | 310° |
| 2026-05-07 11:34 | 50.85727 | 52.10245 | 35880 ft | 488 kts | 310° |
| 2026-05-07 11:35 | 50.90084 | 52.01983 | 35884 ft | 487 kts | 310° |
| 2026-05-07 11:35 | 50.94417 | 51.93736 | 35871 ft | 487 kts | 311° |
| 2026-05-07 11:36 | 50.98723 | 51.85519 | 35890 ft | 486 kts | 310° |
| 2026-05-07 11:36 | 51.03042 | 51.77247 | 35879 ft | 487 kts | 310° |
| 2026-05-07 11:37 | 51.06656 | 51.70306 | 35872 ft | 487 kts | 311° |
| 2026-05-07 11:37 | 51.11679 | 51.60632 | 35884 ft | 487 kts | 310° |
| 2026-05-07 11:38 | 51.15789 | 51.52050 | 35881 ft | 489 kts | 302° |
| 2026-05-07 11:38 | 51.19110 | 51.42606 | 35882 ft | 489 kts | 299° |
| 2026-05-07 11:39 | 51.21817 | 51.34617 | 35883 ft | 489 kts | 299° |
| 2026-05-07 11:39 | 51.25044 | 51.25178 | 35883 ft | 488 kts | 299° |
| 2026-05-07 11:40 | 51.28316 | 51.15669 | 35875 ft | 488 kts | 299° |
| 2026-05-07 11:40 | 51.31578 | 51.06174 | 35868 ft | 488 kts | 299° |
| 2026-05-07 11:41 | 51.34681 | 50.97105 | 35878 ft | 488 kts | 298° |
| 2026-05-07 11:41 | 51.37928 | 50.87576 | 35861 ft | 488 kts | 298° |
| 2026-05-07 11:42 | 51.41146 | 50.78097 | 35866 ft | 488 kts | 298° |
| 2026-05-07 11:42 | 51.44376 | 50.68542 | 35871 ft | 488 kts | 298° |
| 2026-05-07 11:43 | 51.47606 | 50.58957 | 35858 ft | 488 kts | 298° |
| 2026-05-07 11:43 | 51.50682 | 50.49246 | 35872 ft | 488 kts | 295° |
| 2026-05-07 11:44 | 51.53512 | 50.39345 | 35868 ft | 487 kts | 294° |
| 2026-05-07 11:44 | 51.56325 | 50.29428 | 35859 ft | 487 kts | 295° |
| 2026-05-07 11:45 | 51.59153 | 50.19531 | 35865 ft | 487 kts | 295° |
| 2026-05-07 11:45 | 51.61981 | 50.09624 | 35863 ft | 487 kts | 295° |
| 2026-05-07 11:46 | 51.64798 | 49.99714 | 35854 ft | 487 kts | 295° |
| 2026-05-07 11:46 | 51.67590 | 49.89841 | 35864 ft | 487 kts | 295° |
| 2026-05-07 11:47 | 51.70392 | 49.79888 | 35866 ft | 487 kts | 295° |
| 2026-05-07 11:47 | 51.73183 | 49.69927 | 35864 ft | 487 kts | 295° |
| 2026-05-07 11:48 | 51.75962 | 49.59974 | 35869 ft | 487 kts | 294° |
| 2026-05-07 11:48 | 51.78735 | 49.49999 | 35874 ft | 486 kts | 294° |
| 2026-05-07 11:49 | 51.81474 | 49.40100 | 35872 ft | 485 kts | 294° |
| 2026-05-07 11:49 | 51.84217 | 49.30148 | 35876 ft | 484 kts | 294° |
| 2026-05-07 11:50 | 51.86947 | 49.20199 | 35875 ft | 483 kts | 294° |
| 2026-05-07 11:50 | 51.89667 | 49.10244 | 35883 ft | 483 kts | 294° |
| 2026-05-07 11:51 | 51.92374 | 49.00291 | 35890 ft | 483 kts | 294° |
| 2026-05-07 11:51 | 51.95063 | 48.90365 | 35881 ft | 484 kts | 294° |
| 2026-05-07 11:52 | 51.97761 | 48.80367 | 35894 ft | 484 kts | 294° |
| 2026-05-07 11:52 | 52.00436 | 48.70341 | 35888 ft | 484 kts | 294° |
| 2026-05-07 11:53 | 52.03097 | 48.60296 | 35891 ft | 484 kts | 293° |
| 2026-05-07 11:53 | 52.05732 | 48.50314 | 35898 ft | 483 kts | 293° |
| 2026-05-07 11:54 | 52.08360 | 48.40324 | 35893 ft | 482 kts | 293° |
| 2026-05-07 11:54 | 52.10933 | 48.30501 | 35904 ft | 482 kts | 293° |
| 2026-05-07 11:55 | 52.13559 | 48.20438 | 35898 ft | 482 kts | 293° |
| 2026-05-07 11:55 | 52.16231 | 48.10505 | 35904 ft | 482 kts | 294° |
| 2026-05-07 11:56 | 52.18983 | 48.00568 | 35909 ft | 482 kts | 294° |
| 2026-05-07 11:56 | 52.21728 | 47.90577 | 35913 ft | 481 kts | 294° |
| 2026-05-07 11:57 | 52.24443 | 47.80591 | 35906 ft | 482 kts | 294° |
| 2026-05-07 11:57 | 52.27149 | 47.70581 | 35912 ft | 481 kts | 294° |
| 2026-05-07 11:58 | 52.29833 | 47.60616 | 35910 ft | 481 kts | 294° |
| 2026-05-07 11:58 | 52.32501 | 47.50673 | 35915 ft | 480 kts | 294° |
| 2026-05-07 11:59 | 52.35183 | 47.40658 | 35920 ft | 480 kts | 294° |
| 2026-05-07 11:59 | 52.37858 | 47.30654 | 35915 ft | 480 kts | 294° |
| 2026-05-07 12:00 | 52.40522 | 47.20646 | 35926 ft | 479 kts | 294° |
| 2026-05-07 12:00 | 52.43174 | 47.10631 | 35929 ft | 479 kts | 294° |
| 2026-05-07 12:01 | 52.45814 | 47.00616 | 35939 ft | 479 kts | 294° |
| 2026-05-07 12:01 | 52.48438 | 46.90624 | 35934 ft | 479 kts | 294° |
| 2026-05-07 12:02 | 52.51063 | 46.80581 | 35953 ft | 478 kts | 294° |
| 2026-05-07 12:02 | 52.53665 | 46.70515 | 35940 ft | 483 kts | 294° |
| 2026-05-07 12:03 | 52.56304 | 46.60254 | 35942 ft | 491 kts | 294° |
| 2026-05-07 12:03 | 52.58973 | 46.49836 | 35940 ft | 498 kts | 294° |
| 2026-05-07 12:04 | 52.61670 | 46.39265 | 35939 ft | 501 kts | 294° |
| 2026-05-07 12:04 | 52.64250 | 46.28730 | 35936 ft | 497 kts | 291° |
| 2026-05-07 12:05 | 52.66596 | 46.18074 | 35938 ft | 493 kts | 291° |
| 2026-05-07 12:05 | 52.68912 | 46.07455 | 35960 ft | 492 kts | 290° |
| 2026-05-07 12:06 | 52.71260 | 45.96821 | 35942 ft | 492 kts | 291° |
| 2026-05-07 12:06 | 52.73591 | 45.86281 | 35949 ft | 492 kts | 291° |
| 2026-05-07 12:07 | 52.75924 | 45.75670 | 35942 ft | 491 kts | 290° |
| 2026-05-07 12:07 | 52.78241 | 45.65068 | 35943 ft | 491 kts | 290° |
| 2026-05-07 12:08 | 52.80551 | 45.54451 | 35947 ft | 490 kts | 290° |
| 2026-05-07 12:08 | 52.82850 | 45.43805 | 35968 ft | 491 kts | 290° |
| 2026-05-07 12:09 | 52.85123 | 45.33167 | 35965 ft | 491 kts | 290° |
| 2026-05-07 12:09 | 52.87392 | 45.22493 | 35949 ft | 492 kts | 290° |
| 2026-05-07 12:10 | 52.89638 | 45.11879 | 35946 ft | 492 kts | 290° |
| 2026-05-07 12:10 | 52.91903 | 45.01154 | 35944 ft | 492 kts | 290° |
| 2026-05-07 12:11 | 52.94620 | 44.90731 | 35954 ft | 492 kts | 295° |
| 2026-05-07 12:11 | 52.97545 | 44.80485 | 35962 ft | 492 kts | 296° |
| 2026-05-07 12:12 | 53.00452 | 44.70202 | 35946 ft | 492 kts | 295° |
| 2026-05-07 12:12 | 53.03313 | 44.59885 | 35964 ft | 492 kts | 295° |
| 2026-05-07 12:13 | 53.06154 | 44.49525 | 35952 ft | 491 kts | 295° |
| 2026-05-07 12:13 | 53.08965 | 44.39215 | 35961 ft | 491 kts | 295° |
| 2026-05-07 12:14 | 53.11782 | 44.28847 | 35956 ft | 491 kts | 294° |
| 2026-05-07 12:14 | 53.14575 | 44.18526 | 35939 ft | 491 kts | 294° |
| 2026-05-07 12:15 | 53.17376 | 44.08131 | 35939 ft | 491 kts | 294° |
| 2026-05-07 12:15 | 53.20167 | 43.97725 | 35958 ft | 491 kts | 294° |
| 2026-05-07 12:16 | 53.22946 | 43.87315 | 35932 ft | 490 kts | 294° |
| 2026-05-07 12:16 | 53.25716 | 43.76893 | 35947 ft | 490 kts | 294° |
| 2026-05-07 12:17 | 53.28453 | 43.66549 | 35928 ft | 489 kts | 294° |
| 2026-05-07 12:17 | 53.31196 | 43.56130 | 35923 ft | 489 kts | 294° |
| 2026-05-07 12:18 | 53.33927 | 43.45713 | 35921 ft | 489 kts | 294° |
| 2026-05-07 12:18 | 53.36648 | 43.35287 | 35921 ft | 489 kts | 293° |
| 2026-05-07 12:19 | 53.39358 | 43.24853 | 35943 ft | 488 kts | 293° |
| 2026-05-07 12:19 | 53.42047 | 43.14451 | 35933 ft | 488 kts | 293° |
| 2026-05-07 12:20 | 53.44742 | 43.03978 | 35930 ft | 488 kts | 293° |
| 2026-05-07 12:20 | 53.47427 | 42.93494 | 35916 ft | 488 kts | 293° |
| 2026-05-07 12:21 | 53.50095 | 42.83028 | 35913 ft | 488 kts | 293° |
| 2026-05-07 12:21 | 53.52762 | 42.72518 | 35909 ft | 488 kts | 293° |
| 2026-05-07 12:22 | 53.55405 | 42.62052 | 35911 ft | 487 kts | 292° |
| 2026-05-07 12:22 | 53.58029 | 42.51613 | 35909 ft | 487 kts | 292° |
| 2026-05-07 12:23 | 53.60656 | 42.41111 | 35912 ft | 486 kts | 292° |
| 2026-05-07 12:23 | 53.63259 | 42.30659 | 35914 ft | 485 kts | 292° |
| 2026-05-07 12:24 | 53.65862 | 42.20153 | 35911 ft | 485 kts | 292° |
| 2026-05-07 12:24 | 53.68456 | 42.09637 | 35918 ft | 485 kts | 292° |
| 2026-05-07 12:25 | 53.70968 | 41.99071 | 35919 ft | 484 kts | 288° |
| 2026-05-07 12:25 | 53.72429 | 41.88014 | 35915 ft | 483 kts | 277° |
| 2026-05-07 12:26 | 53.73150 | 41.78654 | 35927 ft | 483 kts | 277° |
| 2026-05-07 12:26 | 53.74169 | 41.65567 | 35928 ft | 483 kts | 277° |
| 2026-05-07 12:27 | 53.74917 | 41.56142 | 35917 ft | 483 kts | 277° |
| 2026-05-07 12:27 | 53.75808 | 41.44958 | 35919 ft | 483 kts | 277° |
| 2026-05-07 12:28 | 53.76697 | 41.33686 | 35919 ft | 483 kts | 277° |
| 2026-05-07 12:28 | 53.77576 | 41.22391 | 35920 ft | 483 kts | 277° |
| 2026-05-07 12:29 | 53.78441 | 41.11127 | 35918 ft | 483 kts | 277° |
| 2026-05-07 12:29 | 53.79290 | 40.99912 | 35918 ft | 483 kts | 277° |
| 2026-05-07 12:30 | 53.80134 | 40.88633 | 35922 ft | 483 kts | 277° |
| 2026-05-07 12:30 | 53.80968 | 40.77338 | 35930 ft | 483 kts | 277° |
| 2026-05-07 12:31 | 53.81785 | 40.66125 | 35916 ft | 482 kts | 277° |
| 2026-05-07 12:31 | 53.82596 | 40.54848 | 35916 ft | 482 kts | 277° |
| 2026-05-07 12:32 | 53.83389 | 40.43672 | 35919 ft | 482 kts | 277° |
| 2026-05-07 12:32 | 53.83786 | 40.38011 | 35693 ft | 483 kts | 277° |
| 2026-05-07 12:32 | 53.84177 | 40.32414 | 35840 ft | 472 kts | 276° |
| 2026-05-07 12:33 | 53.85328 | 40.15683 | 35985 ft | 486 kts | 277° |
| 2026-05-07 12:33 | 53.86105 | 40.04193 | 36337 ft | 501 kts | 276° |
| 2026-05-07 12:34 | 53.86495 | 39.98346 | 36176 ft | 492 kts | 276° |
| 2026-05-07 12:34 | 53.86871 | 39.92685 | 36046 ft | 478 kts | 276° |
| 2026-05-07 12:34 | 53.87601 | 39.81569 | 36005 ft | 475 kts | 276° |
| 2026-05-07 12:35 | 53.88411 | 39.70378 | 35906 ft | 476 kts | 284° |
| 2026-05-07 12:35 | 53.89637 | 39.65249 | 35798 ft | 466 kts | 302° |
| 2026-05-07 12:35 | 53.91629 | 39.61010 | 35535 ft | 457 kts | 314° |
| 2026-05-07 12:36 | 53.94109 | 39.57702 | 35135 ft | 448 kts | 328° |
| 2026-05-07 12:36 | 53.96744 | 39.55002 | 34821 ft | 441 kts | 326° |
| 2026-05-07 12:36 | 53.99273 | 39.52232 | 33823 ft | 434 kts | 325° |
| 2026-05-07 12:36 | 54.01805 | 39.49377 | 31956 ft | 441 kts | 325° |
| 2026-05-07 12:37 | 54.04345 | 39.46491 | 30510 ft | 438 kts | 325° |
| 2026-05-07 12:37 | 54.06872 | 39.43632 | 28996 ft | 433 kts | 325° |
| 2026-05-07 12:37 | 54.09371 | 39.40822 | 27519 ft | 427 kts | 325° |
| 2026-05-07 12:37 | 54.11838 | 39.38059 | 26182 ft | 420 kts | 325° |
| 2026-05-07 12:38 | 54.14287 | 39.35323 | 25463 ft | 420 kts | 325° |
| 2026-05-07 12:38 | 54.16724 | 39.32602 | 24951 ft | 416 kts | 325° |
| 2026-05-07 12:38 | 54.19143 | 39.29901 | 24456 ft | 413 kts | 325° |
| 2026-05-07 12:38 | 54.21538 | 39.27223 | 23960 ft | 410 kts | 325° |
| 2026-05-07 12:39 | 54.23889 | 39.24590 | 23470 ft | 408 kts | 325° |
| 2026-05-07 12:39 | 54.26265 | 39.21924 | 22885 ft | 406 kts | 325° |
| 2026-05-07 12:39 | 54.28615 | 39.19283 | 22355 ft | 402 kts | 325° |
| 2026-05-07 12:39 | 54.30940 | 39.16669 | 21864 ft | 398 kts | 324° |
| 2026-05-07 12:40 | 54.33253 | 39.14064 | 21382 ft | 395 kts | 324° |
| 2026-05-07 12:40 | 54.35537 | 39.11488 | 20893 ft | 391 kts | 324° |
| 2026-05-07 12:40 | 54.37793 | 39.08940 | 20433 ft | 388 kts | 324° |
| 2026-05-07 12:40 | 54.40041 | 39.06397 | 20036 ft | 384 kts | 324° |
| 2026-05-07 12:41 | 54.42295 | 39.03841 | 19513 ft | 391 kts | 324° |
| 2026-05-07 12:41 | 54.44564 | 39.01264 | 19025 ft | 390 kts | 324° |
| 2026-05-07 12:41 | 54.46823 | 38.98699 | 18544 ft | 387 kts | 324° |
| 2026-05-07 12:41 | 54.49073 | 38.96140 | 17840 ft | 389 kts | 324° |
| 2026-05-07 12:42 | 54.51305 | 38.93598 | 17063 ft | 391 kts | 324° |
| 2026-05-07 12:42 | 54.53603 | 38.90978 | 16340 ft | 392 kts | 324° |
| 2026-05-07 12:42 | 54.55879 | 38.88379 | 15693 ft | 392 kts | 324° |
| 2026-05-07 12:42 | 54.58123 | 38.85813 | 15268 ft | 392 kts | 324° |
| 2026-05-07 12:43 | 54.60411 | 38.83192 | 14909 ft | 396 kts | 324° |
| 2026-05-07 12:43 | 54.62710 | 38.80554 | 14550 ft | 398 kts | 324° |
| 2026-05-07 12:43 | 54.65012 | 38.77910 | 14197 ft | 397 kts | 324° |
| 2026-05-07 12:43 | 54.67307 | 38.75274 | 13822 ft | 396 kts | 324° |
| 2026-05-07 12:44 | 54.69599 | 38.72635 | 13335 ft | 396 kts | 324° |
| 2026-05-07 12:44 | 54.71873 | 38.70014 | 12833 ft | 394 kts | 324° |
| 2026-05-07 12:44 | 54.74166 | 38.67367 | 12346 ft | 390 kts | 324° |
| 2026-05-07 12:44 | 54.76402 | 38.64783 | 11850 ft | 385 kts | 323° |
| 2026-05-07 12:45 | 54.78606 | 38.62233 | 11380 ft | 380 kts | 323° |
| 2026-05-07 12:45 | 54.80807 | 38.59684 | 10894 ft | 377 kts | 323° |
| 2026-05-07 12:45 | 54.82991 | 38.57147 | 10387 ft | 375 kts | 323° |
| 2026-05-07 12:45 | 54.85147 | 38.54639 | 9938 ft | 372 kts | 323° |
| 2026-05-07 12:46 | 54.87260 | 38.52180 | 9489 ft | 368 kts | 323° |
| 2026-05-07 12:46 | 54.89402 | 38.49688 | 9141 ft | 362 kts | 323° |
| 2026-05-07 12:46 | 54.91436 | 38.47315 | 8856 ft | 361 kts | 323° |
| 2026-05-07 12:46 | 54.93524 | 38.44872 | 8624 ft | 364 kts | 323° |
| 2026-05-07 12:47 | 54.95657 | 38.42372 | 8626 ft | 367 kts | 323° |
| 2026-05-07 12:47 | 54.97742 | 38.39929 | 8524 ft | 352 kts | 323° |
| 2026-05-07 12:47 | 54.99732 | 38.37601 | 8421 ft | 338 kts | 323° |
| 2026-05-07 12:47 | 55.01642 | 38.35370 | 8333 ft | 325 kts | 322° |
| 2026-05-07 12:48 | 55.03471 | 38.33224 | 7990 ft | 307 kts | 322° |
| 2026-05-07 12:48 | 55.05223 | 38.31162 | 7841 ft | 299 kts | 322° |
| 2026-05-07 12:48 | 55.06928 | 38.29152 | 7333 ft | 290 kts | 321° |
| 2026-05-07 12:48 | 55.08581 | 38.27201 | 6757 ft | 282 kts | 321° |
| 2026-05-07 12:49 | 55.10172 | 38.25322 | 6223 ft | 271 kts | 321° |
| 2026-05-07 12:49 | 55.11692 | 38.23527 | 6059 ft | 257 kts | 321° |
| 2026-05-07 12:49 | 55.13189 | 38.21749 | 6011 ft | 265 kts | 321° |
| 2026-05-07 12:49 | 55.14739 | 38.19896 | 5660 ft | 271 kts | 322° |
| 2026-05-07 12:50 | 55.16248 | 38.18106 | 5328 ft | 253 kts | 322° |
| 2026-05-07 12:50 | 55.17629 | 38.16471 | 5189 ft | 231 kts | 321° |
| 2026-05-07 12:50 | 55.18891 | 38.14977 | 5104 ft | 208 kts | 320° |
| 2026-05-07 12:50 | 55.20063 | 38.13577 | 4939 ft | 203 kts | 321° |
| 2026-05-07 12:51 | 55.21237 | 38.12175 | 4701 ft | 203 kts | 321° |
| 2026-05-07 12:51 | 55.22381 | 38.10812 | 4428 ft | 195 kts | 321° |
| 2026-05-07 12:51 | 55.23507 | 38.09471 | 4216 ft | 198 kts | 321° |
| 2026-05-07 12:51 | 55.24650 | 38.08102 | 3964 ft | 197 kts | 321° |
| 2026-05-07 12:52 | 55.25762 | 38.06782 | 3695 ft | 187 kts | 322° |
| 2026-05-07 12:52 | 55.26792 | 38.05562 | 3432 ft | 168 kts | 321° |
| 2026-05-07 12:52 | 55.27707 | 38.04472 | 3252 ft | 155 kts | 321° |
| 2026-05-07 12:52 | 55.28608 | 38.03394 | 3062 ft | 157 kts | 321° |
| 2026-05-07 12:53 | 55.29495 | 38.02333 | 2861 ft | 151 kts | 320° |
| 2026-05-07 12:53 | 55.30330 | 38.01330 | 2655 ft | 144 kts | 320° |
| 2026-05-07 12:53 | 55.31160 | 38.00331 | 2467 ft | 146 kts | 320° |
| 2026-05-07 12:53 | 55.32002 | 37.99324 | 2301 ft | 147 kts | 321° |
| 2026-05-07 12:54 | 55.32847 | 37.98313 | 2102 ft | 146 kts | 320° |
| 2026-05-07 12:54 | 55.33689 | 37.97307 | 1915 ft | 147 kts | 321° |
| 2026-05-07 12:54 | 55.34533 | 37.96303 | 1712 ft | 145 kts | 321° |
| 2026-05-07 12:54 | 55.35351 | 37.95323 | 1518 ft | 143 kts | 320° |
| 2026-05-07 12:55 | 55.36172 | 37.94331 | 1340 ft | 144 kts | 321° |
| 2026-05-07 12:55 | 55.36983 | 37.93363 | 1182 ft | 144 kts | 319° |
| 2026-05-07 12:55 | 55.37818 | 37.92354 | 993 ft | 144 kts | 324° |
| 2026-05-07 12:55 | 55.38630 | 37.91388 | 771 ft | 137 kts | 320° |
| 2026-05-07 12:56 | 55.39403 | 37.90451 | 638 ft | 134 kts | 321° |
| 2026-05-07 12:56 | 55.40174 | 37.89532 | 566 ft | 129 kts | 320° |
| 2026-05-07 12:56 | 55.40837 | 37.88726 | 571 ft | 99 kts | 326° |
| 2026-05-07 12:56 | 55.41300 | 37.88140 | 574 ft | 64 kts | 323° |
| 2026-05-07 12:57 | 55.41555 | 37.87877 | 571 ft | 14 kts | 5° |
| 2026-05-07 12:57 | 55.41654 | 37.87939 | 569 ft | 17 kts | 7° |
| 2026-05-07 12:57 | 55.41780 | 37.87938 | 564 ft | 18 kts | 5° |
| 2026-05-07 12:57 | 55.41865 | 37.88089 | 563 ft | 18 kts | 65° |
| 2026-05-07 12:58 | 55.41819 | 37.88240 | 562 ft | 12 kts | 164° |
| 2026-05-07 12:58 | 55.41780 | 37.88201 | 564 ft | 0 kts | 242° |